createdAt,value
2023-02-24T00:01:26.017Z,94.66
2023-02-24T00:03:06.667Z,94.58
2023-02-24T00:04:46.809Z,94.53
2023-02-24T00:06:27.155Z,94.97
2023-02-24T00:08:07.470Z,94.87
2023-02-24T00:09:47.853Z,95.02
2023-02-24T00:11:28.292Z,94.66
2023-02-24T00:13:08.656Z,94.72
2023-02-24T00:14:49.043Z,94.56
2023-02-24T00:16:29.553Z,95.01
2023-02-24T00:18:09.762Z,94.88
2023-02-24T00:19:50.151Z,94.23
2023-02-24T00:21:30.503Z,93.86
2023-02-24T00:23:10.880Z,93.32
2023-02-24T00:24:51.350Z,93.71
2023-02-24T00:26:31.598Z,94.13
2023-02-24T00:28:11.998Z,94.38
2023-02-24T00:29:52.368Z,94.11
2023-02-24T00:31:32.882Z,94.33
2023-02-24T00:33:13.150Z,94.49
2023-02-24T00:34:53.549Z,94.48
2023-02-24T00:36:33.958Z,95.08
2023-02-24T00:38:14.311Z,95.07
2023-02-24T00:39:54.727Z,95.05
2023-02-24T00:41:35.129Z,95.41
2023-02-24T00:43:15.490Z,95.8
2023-02-24T00:44:55.813Z,95.87
2023-02-24T00:46:36.323Z,95.92
2023-02-24T00:48:16.565Z,96.03
2023-02-24T00:49:56.934Z,96.03
2023-02-24T00:51:37.276Z,95.88
2023-02-24T00:54:58.070Z,95.86
2023-02-24T00:56:38.417Z,95.52
2023-02-24T00:58:18.813Z,95.16
2023-02-24T00:59:59.161Z,94.45
2023-02-24T01:01:39.576Z,94.43
2023-02-24T01:03:19.966Z,94.46
2023-02-24T01:05:00.356Z,94.68
2023-02-24T01:06:40.738Z,94.56
2023-02-24T01:08:21.156Z,94.51
2023-02-24T01:10:01.556Z,94.71
2023-02-24T01:11:41.921Z,94.63
2023-02-24T01:13:22.224Z,94.05
2023-02-24T01:15:02.610Z,94.24
2023-02-24T01:16:42.965Z,94.31
2023-02-24T01:18:23.320Z,94.45
2023-02-24T01:20:03.701Z,94.49
2023-02-24T01:21:44.022Z,93.66
2023-02-24T01:23:24.460Z,93.41
2023-02-24T01:25:04.787Z,93.08
2023-02-24T01:26:45.129Z,93.31
2023-02-24T01:28:25.521Z,93.12
2023-02-24T01:30:05.900Z,93.42
2023-02-24T01:31:48.782Z,93.42
2023-02-24T01:33:26.711Z,93.36
2023-02-24T01:35:07.101Z,92.73
2023-02-24T01:36:47.465Z,92.88
2023-02-24T01:38:27.858Z,92.96
2023-02-24T01:40:08.228Z,92.86
2023-02-24T01:41:48.597Z,93.12
2023-02-24T01:43:28.963Z,93.08
2023-02-24T01:45:09.344Z,93.5
2023-02-24T01:46:49.858Z,93.98
2023-02-24T01:48:30.211Z,93.86
2023-02-24T01:50:10.552Z,93.89
2023-02-24T01:51:50.897Z,94.06
2023-02-24T01:53:31.307Z,94.01
2023-02-24T01:55:11.707Z,93.8
2023-02-24T01:56:52.038Z,94.15
2023-02-24T01:58:32.387Z,93.85
2023-02-24T02:00:12.795Z,93.38
2023-02-24T02:00:12.812Z,93.38
2023-02-24T02:00:12.826Z,93.38
2023-02-24T02:00:12.838Z,93.38
2023-02-24T02:00:12.842Z,93.38
2023-02-24T02:03:33.563Z,92.69
2023-02-24T02:05:13.940Z,92.21
2023-02-24T02:06:54.288Z,92.16
2023-02-24T02:08:34.747Z,92.86
2023-02-24T02:10:15.121Z,92.75
2023-02-24T02:11:55.515Z,92.35
2023-02-24T02:13:36.097Z,92.11
2023-02-24T02:15:16.324Z,91.8
2023-02-24T02:16:56.680Z,92.2
2023-02-24T02:18:37.033Z,92.47
2023-02-24T02:20:17.465Z,91.56
2023-02-24T02:21:57.772Z,92.19
2023-02-24T02:23:38.138Z,92.19
2023-02-24T02:25:18.559Z,92.5
2023-02-24T02:26:58.918Z,92.23
2023-02-24T02:28:39.280Z,92.08
2023-02-24T02:30:19.632Z,92.14
2023-02-24T02:32:00.218Z,92.45
2023-02-24T02:33:40.381Z,92.81
2023-02-24T02:35:20.808Z,92.94
2023-02-24T02:37:01.196Z,92.92
2023-02-24T02:38:41.606Z,92.61
2023-02-24T02:40:21.956Z,92.57
2023-02-24T02:42:02.362Z,92.52
2023-02-24T02:43:42.768Z,92.19
2023-02-24T02:45:23.142Z,91.73
2023-02-24T02:47:03.462Z,91.95
2023-02-24T02:48:43.867Z,91.96
2023-02-24T02:50:24.221Z,92.3
2023-02-24T02:52:04.658Z,92.7
2023-02-24T02:53:45.050Z,92.79
2023-02-24T02:55:25.486Z,93.06
2023-02-24T02:57:05.908Z,93.08
2023-02-24T02:58:46.238Z,93.13
2023-02-24T03:00:26.632Z,92.52
2023-02-24T03:02:06.955Z,92
2023-02-24T03:03:47.354Z,91.74
2023-02-24T03:05:27.809Z,92.24
2023-02-24T03:07:08.210Z,92.25
2023-02-24T03:08:48.597Z,92.45
2023-02-24T03:10:29.067Z,92.09
2023-02-24T03:12:09.293Z,92.04
2023-02-24T03:13:49.683Z,92.25
2023-02-24T03:15:30.069Z,92.58
2023-02-24T03:17:10.429Z,92.77
2023-02-24T03:18:50.825Z,93.14
2023-02-24T03:20:31.131Z,93.05
2023-02-24T03:22:11.490Z,93.14
2023-02-24T03:23:51.901Z,92.58
2023-02-24T03:25:32.336Z,92.65
2023-02-24T03:27:12.728Z,92.14
2023-02-24T03:28:53.112Z,92.44
2023-02-24T03:30:33.489Z,92.83
2023-02-24T03:32:13.976Z,92.56
2023-02-24T03:33:54.220Z,92.7
2023-02-24T03:35:34.615Z,92.61
2023-02-24T03:37:14.999Z,92.13
2023-02-24T03:38:55.323Z,91.96
2023-02-24T03:40:35.668Z,91.88
2023-02-24T03:42:16.048Z,91.96
2023-02-24T03:43:56.458Z,91.9
2023-02-24T03:45:36.874Z,91.65
2023-02-24T03:47:17.227Z,91.31
2023-02-24T03:48:57.633Z,91.63
2023-02-24T03:50:38.001Z,91.87
2023-02-24T03:53:58.736Z,91.69
2023-02-24T03:55:39.094Z,91.66
2023-02-24T03:57:19.435Z,92.12
2023-02-24T03:58:59.797Z,92.06
2023-02-24T04:00:40.224Z,91.53
2023-02-24T04:02:20.636Z,91.47
2023-02-24T04:04:00.992Z,92.02
2023-02-24T04:05:41.440Z,91.81
2023-02-24T04:07:21.917Z,92.53
2023-02-24T04:09:02.265Z,92.13
2023-02-24T04:10:42.723Z,91.78
2023-02-24T04:12:23.045Z,91.76
2023-02-24T04:14:03.306Z,91.6
2023-02-24T04:15:43.972Z,91.58
2023-02-24T04:17:24.096Z,92.14
2023-02-24T04:19:04.438Z,90.62
2023-02-24T04:20:44.850Z,91.12
2023-02-24T04:22:25.266Z,91.34
2023-02-24T04:24:05.634Z,91.7
2023-02-24T04:25:45.977Z,91.91
2023-02-24T04:27:26.399Z,91.95
2023-02-24T04:29:06.799Z,91.52
2023-02-24T04:30:47.266Z,91.8
2023-02-24T04:32:27.774Z,91.34
2023-02-24T04:34:07.951Z,91.17
2023-02-24T04:35:48.304Z,91.44
2023-02-24T04:37:28.660Z,91.59
2023-02-24T04:39:09.083Z,91.04
2023-02-24T04:40:49.465Z,91.12
2023-02-24T04:42:29.882Z,91.54
2023-02-24T04:44:10.237Z,91.45
2023-02-24T04:45:50.554Z,92.15
2023-02-24T04:47:30.933Z,92.07
2023-02-24T04:49:11.289Z,91.35
2023-02-24T04:50:51.665Z,91.76
2023-02-24T04:52:32.095Z,91.49
2023-02-24T04:54:12.484Z,91.44
2023-02-24T04:55:52.879Z,91.15
2023-02-24T04:57:33.266Z,91.68
2023-02-24T04:59:13.694Z,92
2023-02-24T05:00:54.087Z,91.96
2023-02-24T05:02:34.438Z,91.72
2023-02-24T05:04:14.879Z,91.73
2023-02-24T05:05:55.155Z,92.44
2023-02-24T05:07:35.634Z,92.02
2023-02-24T05:09:16.011Z,92.14
2023-02-24T05:10:56.409Z,92.15
2023-02-24T05:12:36.760Z,92.12
2023-02-24T05:14:17.126Z,92.38
2023-02-24T05:15:57.505Z,92.01
2023-02-24T05:17:37.826Z,92
2023-02-24T05:19:18.161Z,92.05
2023-02-24T05:20:59.897Z,91.26
2023-02-24T05:22:38.829Z,91.38
2023-02-24T05:24:19.210Z,91.38
2023-02-24T05:25:59.588Z,90.65
2023-02-24T05:27:39.948Z,90.98
2023-02-24T05:29:20.312Z,90.4
2023-02-24T05:31:00.950Z,89.94
2023-02-24T05:32:41.206Z,90.39
2023-02-24T05:34:21.557Z,90.86
2023-02-24T05:36:01.898Z,90.78
2023-02-24T05:37:42.275Z,90.63
2023-02-24T05:39:22.675Z,90.79
2023-02-24T05:41:03.064Z,91.31
2023-02-24T05:42:43.443Z,91.14
2023-02-24T05:44:23.830Z,91.32
2023-02-24T05:46:04.222Z,90.36
2023-02-24T05:47:44.564Z,90.35
2023-02-24T05:49:24.925Z,90.3
2023-02-24T05:51:05.372Z,90.64
2023-02-24T05:52:45.721Z,90.53
2023-02-24T05:54:26.021Z,89.99
2023-02-24T05:56:06.344Z,89.8
2023-02-24T05:57:46.782Z,90.01
2023-02-24T05:59:27.098Z,89.39
2023-02-24T06:01:07.481Z,88.86
2023-02-24T06:02:47.889Z,87.52
2023-02-24T06:04:28.139Z,87.47
2023-02-24T06:06:08.564Z,87.47
2023-02-24T06:07:48.934Z,87.32
2023-02-24T06:09:29.319Z,87.27
2023-02-24T06:12:50.016Z,86.67
2023-02-24T06:14:30.401Z,87.2
2023-02-24T06:16:10.853Z,88.05
2023-02-24T06:17:51.170Z,87.62
2023-02-24T06:19:31.584Z,87.89
2023-02-24T06:21:11.989Z,86.86
2023-02-24T06:22:52.369Z,86.02
2023-02-24T06:24:32.711Z,87.02
2023-02-24T06:26:13.280Z,87.24
2023-02-24T06:27:53.494Z,86.94
2023-02-24T06:29:33.842Z,87.13
2023-02-24T06:31:14.211Z,86.78
2023-02-24T06:32:54.679Z,86.65
2023-02-24T06:34:34.961Z,86.78
2023-02-24T06:36:15.445Z,86.66
2023-02-24T06:37:55.841Z,86.67
2023-02-24T06:39:36.907Z,86.52
2023-02-24T06:41:16.515Z,86.95
2023-02-24T06:42:56.815Z,86.29
2023-02-24T06:44:37.201Z,87.15
2023-02-24T06:46:17.639Z,87.04
2023-02-24T06:47:58.013Z,87.78
2023-02-24T06:49:38.305Z,86.75
2023-02-24T06:51:19.015Z,87.21
2023-02-24T06:52:59.151Z,87.14
2023-02-24T06:54:39.406Z,87.59
2023-02-24T06:56:19.842Z,86.84
2023-02-24T06:58:00.202Z,86.76
2023-02-24T06:59:40.601Z,87.92
2023-02-24T07:01:21.247Z,87.7
2023-02-24T07:03:01.321Z,86.94
2023-02-24T07:04:41.750Z,86.45
2023-02-24T07:06:22.067Z,86.04
2023-02-24T07:08:02.471Z,86.21
2023-02-24T07:09:43.039Z,85.37
2023-02-24T07:11:23.558Z,85.66
2023-02-24T07:13:03.537Z,86.57
2023-02-24T07:14:44.034Z,85.22
2023-02-24T07:16:24.393Z,85.95
2023-02-24T07:18:04.762Z,85.86
2023-02-24T07:19:45.201Z,86.12
2023-02-24T07:21:25.523Z,86.54
2023-02-24T07:23:05.886Z,85.89
2023-02-24T07:24:46.620Z,85.69
2023-02-24T07:26:26.678Z,85.21
2023-02-24T07:28:07.046Z,85.19
2023-02-24T07:29:47.392Z,85.62
2023-02-24T07:31:27.823Z,84.99
2023-02-24T07:33:08.113Z,84.95
2023-02-24T07:34:48.405Z,83.97
2023-02-24T07:36:28.733Z,83.68
2023-02-24T07:38:09.148Z,83.98
2023-02-24T07:39:49.436Z,84.18
2023-02-24T07:41:31.386Z,84.44
2023-02-24T07:43:10.317Z,84.01
2023-02-24T07:46:31.159Z,82.93
2023-02-24T07:48:11.428Z,83.7
2023-02-24T07:49:51.807Z,83.59
2023-02-24T07:51:32.134Z,84.03
2023-02-24T07:53:12.545Z,84.13
2023-02-24T07:54:52.910Z,83.74
2023-02-24T07:56:33.244Z,83.34
2023-02-24T07:58:13.584Z,81.93
2023-02-24T07:59:53.952Z,82.81
2023-02-24T08:01:34.365Z,83.68
2023-02-24T08:03:14.704Z,82.38
2023-02-24T08:04:55.110Z,82.91
2023-02-24T08:06:35.460Z,82.71
2023-02-24T08:08:15.818Z,83.76
2023-02-24T08:09:56.184Z,83.99
2023-02-24T08:11:36.574Z,83.13
2023-02-24T08:13:17.001Z,82.25
2023-02-24T08:14:57.409Z,83.25
2023-02-24T08:16:37.760Z,83.01
2023-02-24T08:18:18.183Z,82.97
2023-02-24T08:19:58.514Z,82.95
2023-02-24T08:21:38.923Z,83.62
2023-02-24T08:23:19.242Z,83.07
2023-02-24T08:24:59.560Z,84.15
2023-02-24T08:26:39.983Z,84.42
2023-02-24T08:28:20.361Z,83.74
2023-02-24T08:30:00.695Z,83.63
2023-02-24T08:31:41.333Z,84.64
2023-02-24T08:33:21.431Z,83.03
2023-02-24T08:35:01.696Z,82.86
2023-02-24T08:36:42.097Z,83.37
2023-02-24T08:38:24.281Z,81.83
2023-02-24T08:40:02.801Z,82.21
2023-02-24T08:41:43.165Z,81.92
2023-02-24T08:43:23.513Z,81.67
2023-02-24T08:45:03.861Z,82.09
2023-02-24T08:46:44.260Z,80.81
2023-02-24T08:48:24.553Z,81.58
2023-02-24T08:50:04.965Z,80.64
2023-02-24T08:51:45.357Z,80.85
2023-02-24T08:53:25.818Z,82.23
2023-02-24T08:55:06.167Z,81.53
2023-02-24T08:56:46.469Z,82.26
2023-02-24T08:58:26.825Z,80.39
2023-02-24T09:00:07.252Z,81
2023-02-24T09:01:53.394Z,80.29
2023-02-24T09:03:28.095Z,79.58
2023-02-24T09:05:08.410Z,80.51
2023-02-24T09:06:48.722Z,80.39
2023-02-24T09:08:29.060Z,79.78
2023-02-24T09:10:09.488Z,78.74
2023-02-24T09:11:49.884Z,79.15
2023-02-24T09:13:30.244Z,79.74
2023-02-24T09:15:10.680Z,78.91
2023-02-24T09:16:51.034Z,78.73
2023-02-24T09:18:31.363Z,79.28
2023-02-24T09:20:11.764Z,79.07
2023-02-24T09:21:52.105Z,78.75
2023-02-24T09:23:32.475Z,79.09
2023-02-24T09:25:12.834Z,79.47
2023-02-24T09:26:53.179Z,78.4
2023-02-24T09:28:33.565Z,79.56
2023-02-24T09:30:13.922Z,80.24
2023-02-24T09:31:54.476Z,80.37
2023-02-24T09:33:34.690Z,78.73
2023-02-24T09:35:15.013Z,78.27
2023-02-24T09:36:55.347Z,78.99
2023-02-24T09:38:35.780Z,78.39
2023-02-24T09:40:16.122Z,78.47
2023-02-24T09:41:56.573Z,78.41
2023-02-24T09:43:36.784Z,77.97
2023-02-24T09:45:17.127Z,79.56
2023-02-24T09:46:57.498Z,79.94
2023-02-24T09:48:37.904Z,79.06
2023-02-24T09:50:33.004Z,77.94
2023-02-24T09:51:58.659Z,78.19
2023-02-24T09:53:41.645Z,79.49
2023-02-24T09:55:19.511Z,78.72
2023-02-24T09:56:59.889Z,78.31
2023-02-24T09:58:43.968Z,78.17
2023-02-24T10:00:20.536Z,78.49
2023-02-24T10:02:01.056Z,77.48
2023-02-24T10:03:41.281Z,78.37
2023-02-24T10:05:21.585Z,78.43
2023-02-24T10:07:01.903Z,77.79
2023-02-24T10:08:42.213Z,77.73
2023-02-24T10:10:22.549Z,78.87
2023-02-24T10:12:02.877Z,76.96
2023-02-24T10:13:43.144Z,77.56
2023-02-24T10:15:23.500Z,78.15
2023-02-24T10:17:03.807Z,78.26
2023-02-24T10:18:44.151Z,77.56
2023-02-24T10:20:24.448Z,77.89
2023-02-24T10:22:04.770Z,78.75
2023-02-24T10:23:45.204Z,77.92
2023-02-24T10:25:25.392Z,78.94
2023-02-24T10:27:09.432Z,78.27
2023-02-24T10:28:46.032Z,78.55
2023-02-24T10:30:26.398Z,79.55
2023-02-24T10:32:06.767Z,79.2
2023-02-24T10:33:46.892Z,79.77
2023-02-24T10:35:27.202Z,79.56
2023-02-24T10:37:08.923Z,80.58
2023-02-24T10:38:47.802Z,81.55
2023-02-24T10:40:28.121Z,81.54
2023-02-24T10:42:08.525Z,83.05
2023-02-24T10:43:48.778Z,82.19
2023-02-24T10:45:34.495Z,82.14
2023-02-24T10:47:09.308Z,82.85
2023-02-24T10:48:49.622Z,82.68
2023-02-24T10:50:32.379Z,81.98
2023-02-24T10:52:10.211Z,82.48
2023-02-24T10:53:50.493Z,82.21
2023-02-24T10:55:30.795Z,82.68
2023-02-24T10:57:11.052Z,82.72
2023-02-24T10:58:51.441Z,83.22
2023-02-24T11:00:31.786Z,83.19
2023-02-24T11:02:12.230Z,83.09
2023-02-24T11:03:52.560Z,82.11
2023-02-24T11:05:33.008Z,82.59
2023-02-24T11:07:13.376Z,82
2023-02-24T11:08:53.738Z,82.37
2023-02-24T11:10:34.117Z,82.76
2023-02-24T11:12:14.495Z,83.23
2023-02-24T11:13:54.936Z,82.06
2023-02-24T11:15:35.310Z,82.47
2023-02-24T11:17:15.654Z,83.51
2023-02-24T11:18:56.016Z,83.05
2023-02-24T11:20:48.370Z,83.23
2023-02-24T11:22:16.785Z,83.55
2023-02-24T11:23:57.151Z,83.64
2023-02-24T11:25:37.448Z,83.81
2023-02-24T11:27:17.779Z,85.32
2023-02-24T11:28:58.118Z,85.04
2023-02-24T11:30:38.519Z,84.74
2023-02-24T11:32:19.110Z,84.55
2023-02-24T11:33:59.225Z,84.36
2023-02-24T11:35:39.573Z,85.01
2023-02-24T11:37:19.960Z,84.29
2023-02-24T11:39:15.277Z,84.97
2023-02-24T11:40:40.596Z,84.28
2023-02-24T11:42:21.007Z,85
2023-02-24T11:44:01.355Z,84.66
2023-02-24T11:45:41.730Z,84.84
2023-02-24T11:47:22.128Z,85.1
2023-02-24T11:49:02.507Z,85.08
2023-02-24T11:50:42.876Z,85.81
2023-02-24T11:52:23.257Z,85.53
2023-02-24T11:54:03.611Z,86.38
2023-02-24T11:55:43.985Z,84.86
2023-02-24T11:57:24.989Z,85.45
2023-02-24T11:59:04.743Z,85.51
2023-02-24T12:00:46.927Z,85.09
2023-02-24T12:02:25.984Z,85.13
2023-02-24T12:04:05.730Z,86.2
2023-02-24T12:05:46.132Z,85.75
2023-02-24T12:07:26.419Z,86.03
2023-02-24T12:09:06.820Z,86.49
2023-02-24T12:10:47.201Z,85.64
2023-02-24T12:12:27.534Z,86
2023-02-24T12:14:07.897Z,85.49
2023-02-24T12:15:48.449Z,86.07
2023-02-24T12:17:28.674Z,85.85
2023-02-24T12:19:08.999Z,85.91
2023-02-24T12:20:49.374Z,86.05
2023-02-24T12:22:29.716Z,85.44
2023-02-24T12:24:10.068Z,85.05
2023-02-24T12:25:50.414Z,85.59
2023-02-24T12:27:30.826Z,86.18
2023-02-24T12:29:11.187Z,85.39
2023-02-24T12:30:51.622Z,85.08
2023-02-24T12:32:32.025Z,84.79
2023-02-24T12:34:12.275Z,85.17
2023-02-24T12:35:52.700Z,85.14
2023-02-24T12:37:33.133Z,85.85
2023-02-24T12:39:13.458Z,85.79
2023-02-24T12:40:53.803Z,85.62
2023-02-24T12:42:34.175Z,86.22
2023-02-24T12:44:14.491Z,86.14
2023-02-24T12:45:54.923Z,85.8
2023-02-24T12:47:35.234Z,86.4
2023-02-24T12:49:15.583Z,86.42
2023-02-24T12:50:55.950Z,85.91
2023-02-24T12:52:36.334Z,86.07
2023-02-24T12:54:16.654Z,86.05
2023-02-24T12:55:57.043Z,86.09
2023-02-24T12:57:37.398Z,86.61
2023-02-24T12:59:17.814Z,87.25
2023-02-24T13:00:58.194Z,87.02
2023-02-24T13:02:38.648Z,87.11
2023-02-24T13:04:18.880Z,86.72
2023-02-24T13:05:59.280Z,86.57
2023-02-24T13:07:39.662Z,86.75
2023-02-24T13:09:19.946Z,87.41
2023-02-24T13:11:00.335Z,87.57
2023-02-24T13:12:40.730Z,87.84
2023-02-24T13:14:21.105Z,87.6
2023-02-24T13:16:01.544Z,87.55
2023-02-24T13:17:41.922Z,87.95
2023-02-24T13:19:22.250Z,87.87
2023-02-24T13:21:02.611Z,87.71
2023-02-24T13:22:42.923Z,88.45
2023-02-24T13:24:23.278Z,87.87
2023-02-24T13:26:03.698Z,88.44
2023-02-24T13:27:44.063Z,88.79
2023-02-24T13:29:24.400Z,88.75
2023-02-24T13:31:04.833Z,88.96
2023-02-24T13:32:45.415Z,88.89
2023-02-24T13:34:25.563Z,88.84
2023-02-24T13:36:05.931Z,89.39
2023-02-24T13:37:46.320Z,89.7
2023-02-24T13:39:26.671Z,89.44
2023-02-24T13:41:07.050Z,89.57
2023-02-24T13:42:47.372Z,89.28
2023-02-24T13:44:27.778Z,89.26
2023-02-24T13:46:08.165Z,90.01
2023-02-24T13:47:48.470Z,89.85
2023-02-24T13:49:28.809Z,89.66
2023-02-24T13:51:09.261Z,89.23
2023-02-24T13:52:49.612Z,89.63
2023-02-24T13:54:30.020Z,90.35
2023-02-24T13:56:10.448Z,90.54
2023-02-24T13:57:50.832Z,90.62
2023-02-24T13:59:31.233Z,90.16
2023-02-24T14:01:11.587Z,90.01
2023-02-24T14:02:51.980Z,90.34
2023-02-24T14:04:32.286Z,90.06
2023-02-24T14:06:12.659Z,90.78
2023-02-24T14:07:53.002Z,90.73
2023-02-24T14:09:33.360Z,90.73
2023-02-24T14:11:13.754Z,90.66
2023-02-24T14:12:54.083Z,90.31
2023-02-24T14:14:34.491Z,90.63
2023-02-24T14:16:18.065Z,91.08
2023-02-24T14:17:55.260Z,90.74
2023-02-24T14:19:35.671Z,90.33
2023-02-24T14:21:16.044Z,90.58
2023-02-24T14:22:56.344Z,90.75
2023-02-24T14:24:36.751Z,91.23
2023-02-24T14:26:17.076Z,91.24
2023-02-24T14:27:57.466Z,91.08
2023-02-24T14:29:43.850Z,91.02
2023-02-24T14:31:18.327Z,91.35
2023-02-24T14:33:01.673Z,91.55
2023-02-24T14:34:39.037Z,91.6
2023-02-24T14:36:19.883Z,92.05
2023-02-24T14:38:01.995Z,91.9
2023-02-24T14:39:40.141Z,91.87
2023-02-24T14:41:20.607Z,92.11
2023-02-24T14:43:01.072Z,91.95
2023-02-24T14:44:41.365Z,92.32
2023-02-24T14:46:22.124Z,92.18
2023-02-24T14:48:02.204Z,91.71
2023-02-24T14:49:42.554Z,91.9
2023-02-24T14:51:22.853Z,91.82
2023-02-24T14:53:03.227Z,91.8
2023-02-24T14:54:46.621Z,91.58
2023-02-24T14:56:24.426Z,91.32
2023-02-24T14:58:04.332Z,91.14
2023-02-24T14:59:44.737Z,91.28
2023-02-24T15:01:25.092Z,91.27
2023-02-24T15:03:05.436Z,91.46
2023-02-24T15:04:45.771Z,91.2
2023-02-24T15:06:26.176Z,91.34
2023-02-24T15:08:09.653Z,90.81
2023-02-24T15:09:47.006Z,90.69
2023-02-24T15:11:27.251Z,90.41
2023-02-24T15:13:07.599Z,90.9
2023-02-24T15:14:47.965Z,90.54
2023-02-24T15:16:28.397Z,90.79
2023-02-24T15:18:08.633Z,90.46
2023-02-24T15:19:49.001Z,90.4
2023-02-24T15:21:29.341Z,90.59
2023-02-24T15:23:09.747Z,90.44
2023-02-24T15:24:50.109Z,90.68
2023-02-24T15:26:30.442Z,90.71
2023-02-24T15:28:10.897Z,90.29
2023-02-24T15:29:51.218Z,90.52
2023-02-24T15:31:31.781Z,90.96
2023-02-24T15:33:12.030Z,90.51
2023-02-24T15:34:52.428Z,90.96
2023-02-24T15:36:32.850Z,91.22
2023-02-24T15:38:13.202Z,90.73
2023-02-24T15:39:53.535Z,90.63
2023-02-24T15:41:33.890Z,90.71
2023-02-24T15:43:14.265Z,91.02
2023-02-24T15:44:20.665Z,90.62
2023-02-24T15:44:54.583Z,90.49
2023-02-24T15:45:38.782Z,90.43
2023-02-24T15:46:35.000Z,90.5
2023-02-24T15:46:57.056Z,90.5
2023-02-24T15:48:15.296Z,90.42
2023-02-24T15:49:55.700Z,90.72
2023-02-24T15:51:36.126Z,90.68
2023-02-24T15:53:16.495Z,90.4
2023-02-24T15:54:56.956Z,90.06
2023-02-24T15:56:37.334Z,90.18
2023-02-24T15:57:18.536Z,90.45
2023-02-24T15:58:17.712Z,90.31
2023-02-24T15:58:36.601Z,90.4
2023-02-24T15:59:54.732Z,90.57
2023-02-24T15:59:58.033Z,90.57
2023-02-24T16:01:12.962Z,90.79
2023-02-24T16:01:38.458Z,90.59
2023-02-24T16:02:31.059Z,90.27
2023-02-24T16:03:18.795Z,90.38
2023-02-24T16:03:49.308Z,90.37
2023-02-24T16:04:59.191Z,90.56
2023-02-24T16:05:07.394Z,90.57
2023-02-24T16:06:25.564Z,90.34
2023-02-24T16:06:39.568Z,90.28
2023-02-24T16:07:43.743Z,90.31
2023-02-24T16:08:19.952Z,90.41
2023-02-24T16:09:01.993Z,90.16
2023-02-24T16:10:01.155Z,90.03
2023-02-24T16:10:01.162Z,90.03
2023-02-24T16:10:01.166Z,90.03
2023-02-24T16:10:01.180Z,90.03
2023-02-24T16:10:01.186Z,90.03
2023-02-24T16:10:20.142Z,90.08
2023-02-24T16:11:38.319Z,90.08
2023-02-24T16:11:40.735Z,90.04
2023-02-24T16:12:56.522Z,90.46
2023-02-24T16:13:21.125Z,90.54
2023-02-24T16:14:14.762Z,90.72
2023-02-24T16:15:01.506Z,90.81
2023-02-24T16:15:32.962Z,90.61
2023-02-24T16:16:41.928Z,90.3
2023-02-24T16:16:51.194Z,90.22
2023-02-24T16:18:09.368Z,90.42
2023-02-24T16:18:22.733Z,90.28
2023-02-24T16:19:27.600Z,90.2
2023-02-24T16:20:02.732Z,90.32
2023-02-24T16:20:45.892Z,90.6
2023-02-24T16:21:43.109Z,90.89
2023-02-24T16:22:04.000Z,91
2023-02-24T16:23:22.229Z,91.33
2023-02-24T16:23:23.492Z,91.33
2023-02-24T16:24:40.414Z,90.9
2023-02-24T16:25:03.911Z,90.81
2023-02-24T16:25:58.618Z,90.85
2023-02-24T16:26:44.317Z,90.93
2023-02-24T16:27:16.773Z,90.92
2023-02-24T16:28:24.687Z,91.02
2023-02-24T16:28:34.928Z,91.06
2023-02-24T16:29:53.139Z,91.28
2023-02-24T16:30:05.041Z,91.23
2023-02-24T16:31:11.503Z,91.24
2023-02-24T16:31:45.843Z,91.29
2023-02-24T16:32:29.649Z,91.4
2023-02-24T16:33:26.106Z,91.49
2023-02-24T16:33:54.481Z,91.39
2023-02-24T16:35:05.848Z,91.1
2023-02-24T16:35:06.292Z,91.1
2023-02-24T16:36:24.518Z,91.21
2023-02-24T16:36:46.637Z,91.16
2023-02-24T16:37:42.157Z,91.17
2023-02-24T16:38:27.155Z,91.17
2023-02-24T16:39:00.268Z,91.12
2023-02-24T16:40:07.344Z,91.13
2023-02-24T16:40:18.510Z,91.13
2023-02-24T16:41:36.738Z,91.37
2023-02-24T16:41:47.721Z,91.37
2023-02-24T16:42:54.889Z,91.53
2023-02-24T16:43:28.084Z,91.48
2023-02-24T16:44:13.078Z,91.53
2023-02-24T16:45:08.485Z,91.66
2023-02-24T16:45:31.370Z,91.72
2023-02-24T16:46:48.861Z,91.72
2023-02-24T16:46:49.452Z,91.72
2023-02-24T16:48:07.673Z,91.92
2023-02-24T16:48:29.287Z,91.84
2023-02-24T16:50:09.586Z,92.02
2023-02-24T16:50:36.104Z,91.96
2023-02-24T16:51:50.013Z,91.67
2023-02-24T16:51:54.218Z,91.67
2023-02-24T16:53:12.372Z,91.56
2023-02-24T16:53:30.384Z,91.54
2023-02-24T16:54:30.554Z,91.78
2023-02-24T16:55:10.652Z,91.71
2023-02-24T16:55:48.733Z,91.94
2023-02-24T16:56:51.096Z,92.11
2023-02-24T16:57:06.875Z,92.02
2023-02-24T16:58:25.026Z,91.91
2023-02-24T16:58:31.405Z,91.91
2023-02-24T16:59:43.148Z,92.15
2023-02-24T17:00:11.789Z,92.22
2023-02-24T17:01:46.594Z,92.15
2023-02-24T17:01:52.093Z,92.15
2023-02-24T17:01:57.469Z,92.15
2023-02-24T17:02:08.411Z,92.18
2023-02-24T17:02:19.367Z,92.17
2023-02-24T17:02:30.315Z,92.22
2023-02-24T17:03:32.460Z,92.25
2023-02-24T17:03:48.450Z,92.25
2023-02-24T17:03:59.292Z,92.27
2023-02-24T17:04:10.204Z,92.27
2023-02-24T17:04:21.147Z,92.25
2023-02-24T17:04:32.282Z,92.24
2023-02-24T17:04:43.039Z,92.24
2023-02-24T17:04:53.974Z,92.21
2023-02-24T17:05:12.816Z,92.15
2023-02-24T17:06:53.236Z,92.05
2023-02-24T17:08:33.597Z,92.09
2023-02-24T17:10:14.011Z,92.06
2023-02-24T17:11:33.754Z,91.81
2023-02-24T17:11:54.315Z,91.79
2023-02-24T17:13:34.683Z,91.47
2023-02-24T17:15:12.906Z,91.38
2023-02-24T17:15:15.028Z,91.38
2023-02-24T17:16:54.563Z,90.88
2023-02-24T17:16:56.161Z,90.88
2023-02-24T17:16:56.165Z,90.88
2023-02-24T17:16:56.200Z,90.88
2023-02-24T17:18:35.791Z,91.14
2023-02-24T17:18:36.014Z,91.14
2023-02-24T17:20:16.205Z,90.98
2023-02-24T17:20:17.675Z,90.98
2023-02-24T17:21:56.618Z,91.17
2023-02-24T17:21:59.292Z,91.17
2023-02-24T17:23:36.914Z,91.41
2023-02-24T17:23:40.924Z,91.41
2023-02-24T17:25:17.283Z,91.52
2023-02-24T17:25:22.444Z,91.52
2023-02-24T17:26:57.578Z,91.42
2023-02-24T17:27:04.124Z,91.48
2023-02-24T17:28:38.004Z,91.45
2023-02-24T17:28:45.836Z,91.36
2023-02-24T17:30:18.346Z,91.53
2023-02-24T17:30:27.546Z,91.6
2023-02-24T17:31:58.984Z,91.3
2023-02-24T17:32:09.407Z,91.33
2023-02-24T17:33:39.113Z,91.23
2023-02-24T17:33:50.814Z,91.23
2023-02-24T17:35:19.407Z,91.39
2023-02-24T17:35:32.445Z,91.4
2023-02-24T17:36:59.795Z,91.18
2023-02-24T17:37:13.996Z,91.11
2023-02-24T17:38:40.203Z,91.37
2023-02-24T17:38:55.636Z,91.33
2023-02-24T17:40:20.558Z,91.6
2023-02-24T17:40:37.307Z,91.61
2023-02-24T17:42:00.842Z,91.8
2023-02-24T17:42:18.974Z,91.82
2023-02-24T17:43:41.273Z,91.66
2023-02-24T17:44:00.570Z,91.64
2023-02-24T17:45:21.611Z,91.42
2023-02-24T17:45:42.181Z,91.35
2023-02-24T17:47:02.022Z,91.6
2023-02-24T17:47:23.771Z,91.65
2023-02-24T17:48:42.416Z,91.52
2023-02-24T17:49:05.403Z,91.57
2023-02-24T17:50:22.806Z,91.47
2023-02-24T17:50:47.012Z,91.42
2023-02-24T17:52:05.937Z,91.38
2023-02-24T17:52:28.715Z,91.38
2023-02-24T17:53:43.597Z,91.36
2023-02-24T17:54:10.281Z,91.35
2023-02-24T17:55:23.935Z,91.26
2023-02-24T17:56:02.371Z,91.32
2023-02-24T17:57:04.274Z,91.58
2023-02-24T17:57:33.613Z,91.62
2023-02-24T17:58:44.699Z,91.67
2023-02-24T17:59:15.203Z,91.74
2023-02-24T18:00:25.030Z,91.71
2023-02-24T18:00:56.828Z,91.68
2023-02-24T18:02:05.365Z,91.74
2023-02-24T18:02:38.781Z,91.57
2023-02-24T18:03:45.780Z,91.49
2023-02-24T18:04:20.116Z,91.55
2023-02-24T18:05:26.086Z,91.98
2023-02-24T18:06:01.823Z,91.81
2023-02-24T18:07:06.483Z,91.58
2023-02-24T18:07:43.484Z,91.59
2023-02-24T18:08:46.876Z,91.41
2023-02-24T18:09:25.143Z,91.44
2023-02-24T18:10:27.270Z,91.42
2023-02-24T18:11:06.736Z,91.37
2023-02-24T18:12:07.545Z,91.5
2023-02-24T18:12:48.354Z,91.48
2023-02-24T18:13:47.865Z,91.4
2023-02-24T18:14:29.966Z,91.16
2023-02-24T18:15:28.179Z,91.3
2023-02-24T18:16:11.664Z,91.43
2023-02-24T18:17:08.574Z,91.35
2023-02-24T18:17:53.160Z,91.46
2023-02-24T18:18:48.960Z,91.47
2023-02-24T18:19:34.856Z,91.5
2023-02-24T18:20:29.430Z,91.52
2023-02-24T18:21:16.505Z,91.23
2023-02-24T18:22:09.815Z,91.43
2023-02-24T18:23:01.230Z,91.36
2023-02-24T18:23:50.089Z,91.35
2023-02-24T18:24:39.726Z,91.43
2023-02-24T18:25:30.513Z,91.6
2023-02-24T18:26:23.863Z,91.62
2023-02-24T18:27:10.932Z,91.68
2023-02-24T18:28:03.919Z,91.81
2023-02-24T18:28:51.270Z,92.08